Date,TemperatureHighF,TemperatureAvgF,TemperatureLowF,DewpointHighF,DewpointAvgF,DewpointLowF,HumidityHigh,HumidityAvg,HumidityLow,PressureMaxIn,PressureMinIn,WindSpeedMaxMPH,WindSpeedAvgMPH,GustSpeedMaxMPH,PrecipitationSumIn
2013-7-1,86.0,81.5,78.0,76.8,74.6,71.7,88,80,69,30.03,29.92,20,7,22,0.00
2013-7-2,86.0,81.3,77.0,77.7,75.0,70.0,92,81,70,30.11,29.98,19,6,19,0.00
2013-7-3,85.0,80.9,77.0,76.5,74.0,67.5,90,80,69,30.15,30.04,30,8,30,0.17
2013-7-4,86.0,82.0,73.0,76.3,73.0,68.5,97,75,65,30.17,30.06,22,8,26,0.52
2013-7-5,86.0,81.3,75.0,76.5,73.4,69.3,97,77,64,30.15,30.06,23,7,26,0.04
2013-7-6,87.0,82.3,79.0,76.3,72.8,69.7,90,74,59,30.14,30.02,22,7,26,0.06
2013-7-7,86.0,82.3,80.0,80.0,72.9,70.0,90,74,65,30.12,30.04,23,8,25,0.08
2013-7-8,88.0,82.9,79.0,73.3,71.3,69.3,79,68,56,30.19,30.07,15,6,17,0.00
2013-7-9,86.0,80.5,76.0,74.0,71.3,68.0,89,74,59,30.15,30.06,23,6,25,0.09
2013-7-10,86.0,78.6,72.0,77.0,72.5,69.7,97,82,67,30.09,30.01,18,4,18,0.34
2013-7-11,87.0,82.1,79.0,75.5,73.3,70.5,87,75,64,30.05,29.96,16,5,16,0.00
2013-7-12,90.0,81.2,76.0,76.0,72.2,66.0,92,75,57,29.99,29.91,17,4,19,0.00
2013-7-13,85.0,74.5,71.0,76.8,72.3,69.3,100,93,67,30.01,29.90,18,4,23,5.30
2013-7-14,87.0,78.4,71.0,74.0,72.0,69.3,100,82,60,30.10,29.98,19,6,19,0.33
2013-7-15,87.0,80.6,74.0,76.0,71.4,66.0,94,75,56,30.11,30.01,20,6,20,0.06
2013-7-16,82.0,77.8,72.0,74.0,70.6,66.0,98,80,62,30.12,30.03,9,4,9,0.86
2013-7-17,79.0,75.4,71.0,76.0,72.1,69.0,100,91,76,30.13,30.03,9,4,9,4.25
2013-7-18,84.0,75.3,71.0,78.0,72.8,69.0,100,93,74,30.12,30.03,9,4,9,1.29
2013-7-19,86.0,81.2,76.0,76.0,74.5,72.0,92,82,69,30.16,30.06,9,5,9,0.00
2013-7-20,85.0,81.0,76.0,77.0,74.6,68.0,90,82,66,30.14,30.04,9,5,9,0.00
2013-7-21,87.0,81.6,78.0,77.0,75.1,71.0,90,82,70,30.16,30.06,9,4,9,0.00
2013-7-22,86.0,82.5,80.0,76.0,73.6,72.0,88,76,65,30.18,30.08,9,6,9,0.00
2013-7-23,87.0,81.9,76.0,76.0,73.4,69.0,94,77,58,30.12,29.98,9,4,9,0.00
2013-7-24,92.0,82.7,77.0,78.0,73.0,68.0,93,74,49,30.04,29.93,9,4,9,0.00
2013-7-25,93.0,83.8,74.0,75.0,70.8,66.0,94,68,44,30.06,29.90,9,4,9,0.00
2013-7-26,93.0,81.2,75.0,76.0,73.5,69.0,96,80,46,30.05,29.95,9,4,9,0.42
2013-7-27,85.0,78.1,74.0,79.0,74.6,72.0,99,90,77,30.01,29.94,9,3,9,0.48
2013-7-28,89.0,81.3,75.0,77.0,73.8,72.0,97,80,61,30.08,29.94,9,4,9,0.03
2013-7-29,90.0,83.5,78.0,77.0,74.7,72.0,93,76,59,30.16,30.02,9,4,9,0.00
2013-7-30,89.0,83.5,78.0,78.0,75.3,72.0,92,78,64,30.20,30.09,9,4,9,0.22
2013-7-31,89.0,84.1,79.0,77.0,73.5,70.0,92,72,59,30.15,30.03,9,5,9,0.10